Time;durP1;ratioP1;P1;durP2;ratioP2;P2;SDS_P1;SDS_P2;PMS_P1;PMS_P2;Temp;Humidity;BMP_temperature;BMP_pressure;BME280_temperature;BME280_humidity;BME280_pressure;Samples;Min_cycle;Max_cycle;Signal;HPM_P1;HPM_P2
2023/07/18 00:00:37;;;;;;;;;;;;;;;;;;5103415;28;19955;-60
2023/07/18 00:03:03;;;;;;;;;;;;;;;;;;5090887;28;19933;-60
2023/07/18 00:05:29;;;;;;;;;;;;;;;;;;5104069;28;20132;-60
2023/07/18 00:07:55;;;;;;;;;;;;;;;;;;5103619;28;20002;-60
2023/07/18 00:10:21;;;;;;;;;;;;;;;;;;5103769;28;20532;-60
2023/07/18 00:12:47;;;;;;;;;;;;;;;;;;5102407;28;20405;-60
2023/07/18 00:15:13;;;;;;;;;;;;;;;;;;5103744;28;19920;-60
2023/07/18 00:17:39;;;;;;;;;;;;;;;;;;5103102;28;19947;-60
2023/07/18 00:20:09;;;;;;;;;;;;;;;;;;5103408;28;19923;-60
2023/07/18 00:22:35;;;;;;;;;;;;;;;;;;5096920;28;19927;-61
2023/07/18 00:25:01;;;;;;;;;;;;;;;;;;5105007;28;19923;-61
2023/07/18 00:27:28;;;;;;;;;;;;;;;;;;5102876;28;19943;-61
2023/07/18 00:29:55;;;;;;;;;;;;;;;;;;5103423;28;19924;-61
2023/07/18 00:32:22;;;;;;;;;;;;;;;;;;5102981;28;19928;-60
2023/07/18 00:34:49;;;;;;;;;;;;;;;;;;5103763;28;19920;-61
2023/07/18 00:37:15;;;;;;;;;;;;;;;;;;5103780;28;19924;-60
2023/07/18 00:39:41;;;;;;;;;;;;;;;;;;5103525;28;19928;-61
2023/07/18 00:42:07;;;;;;;;;;;;;;;;;;5103262;28;20009;-61
2023/07/18 00:44:33;;;;;;;;;;;;;;;;;;5102634;28;19972;-61
2023/07/18 00:46:59;;;;;;;;;;;;;;;;;;5102787;28;19927;-61
2023/07/18 00:49:25;;;;;;;;;;;;;;;;;;5102601;28;19931;-60
2023/07/18 00:51:51;;;;;;;;;;;;;;;;;;5136325;27;20011;-61
2023/07/18 00:54:17;;;;;;;;;;;;;;;;;;5111872;28;20023;-61
2023/07/18 00:56:43;;;;;;;;;;;;;;;;;;5103470;28;19927;-60
2023/07/18 00:59:10;;;;;;;;;;;;;;;;;;5113208;28;19931;-61
2023/07/18 01:01:36;;;;;;;;;;;;;;;;;;5105013;27;19970;-61
2023/07/18 01:09:15;;;;;;;;;;;;;;;;;;4979710;28;19932;-71
2023/07/18 01:11:41;;;;;;;;;;;;;;;;;;4981573;28;19930;-71
2023/07/18 01:14:07;;;;;;;;;;;;;;;;;;4983631;28;19926;-70
2023/07/18 01:16:32;;;;;;;;;;;;;;;;;;4979628;28;19980;-70
2023/07/18 01:18:58;;;;;;;;;;;;;;;;;;4984801;28;20413;-70
2023/07/18 01:21:24;;;;;;;;;;;;;;;;;;4980527;28;20383;-70
2023/07/18 01:23:50;;;;;;;;;;;;;;;;;;4985117;28;19933;-70
2023/07/18 01:26:16;;;;;;;;;;;;;;;;;;4984523;28;19926;-70
2023/07/18 01:28:42;;;;;;;;;;;;;;;;;;4980382;28;19981;-69
2023/07/18 01:31:08;;;;;;;;;;;;;;;;;;4983134;28;19929;-70
2023/07/18 01:33:34;;;;;;;;;;;;;;;;;;4979295;28;19926;-70
2023/07/18 01:36:00;;;;;;;;;;;;;;;;;;4981929;28;19933;-69
2023/07/18 01:38:32;;;;;;;;;;;;;;;;;;4981614;28;19933;-69
2023/07/18 01:40:57;;;;;;;;;;;;;;;;;;4985403;28;19926;-69
2023/07/18 01:43:23;;;;;;;;;;;;;;;;;;4985039;28;19948;-71
2023/07/18 01:45:49;;;;;;;;;;;;;;;;;;4981026;28;20402;-71
2023/07/18 01:48:16;;;;;;;;;;;;;;;;;;4981655;28;19922;-71
2023/07/18 01:50:42;;;;;;;;;;;;;;;;;;4976348;28;20013;-69
2023/07/18 01:53:10;;;;;;;;;;;;;;;;;;4980453;28;20009;-71
2023/07/18 01:55:37;;;;;;;;;;;;;;;;;;4978064;28;20005;-71
2023/07/18 01:58:03;;;;;;;;;;;;;;;;;;4976943;28;20272;-71
2023/07/18 02:00:30;;;;;;;;;;;;;;;;;;4971087;28;19937;-70
2023/07/18 02:02:57;;;;;;;;;;;;;;;;;;4973373;28;19926;-70
2023/07/18 02:05:23;;;;;;;;;;;;;;;;;;4968543;28;19926;-71
2023/07/18 02:07:49;;;;;;;;;;;;;;;;;;4969502;28;19937;-70
2023/07/18 02:10:15;;;;;;;;;;;;;;;;;;4978073;28;20574;-70
2023/07/18 02:12:41;;;;;;;;;;;;;;;;;;4978440;28;19922;-71
2023/07/18 02:15:07;;;;;;;;;;;;;;;;;;4984548;28;20481;-71
2023/07/18 02:17:33;;;;;;;;;;;;;;;;;;4985470;28;20020;-72
2023/07/18 02:19:59;;;;;;;;;;;;;;;;;;4980679;28;20026;-71
2023/07/18 02:22:25;;;;;;;;;;;;;;;;;;4981912;28;19925;-71
2023/07/18 02:24:51;;;;;;;;;;;;;;;;;;4980892;28;19926;-71
2023/07/18 02:27:19;;;;;;;;;;;;;;;;;;4979156;28;19933;-71
2023/07/18 02:29:45;;;;;;;;;;;;;;;;;;4972591;28;20406;-71
2023/07/18 02:32:11;;;;;;;;;;;;;;;;;;4954746;28;20276;-71
2023/07/18 02:34:38;;;;;;;;;;;;;;;;;;4984162;28;19930;-72
2023/07/18 02:37:04;;;;;;;;;;;;;;;;;;4982260;28;20334;-71
2023/07/18 02:39:32;;;;;;;;;;;;;;;;;;4982966;28;19941;-71
2023/07/18 02:41:58;;;;;;;;;;;;;;;;;;4977196;28;20014;-71
2023/07/18 02:44:24;;;;;;;;;;;;;;;;;;4980455;28;20004;-71
2023/07/18 02:46:50;;;;;;;;;;;;;;;;;;4974406;28;19926;-71
2023/07/18 02:49:16;;;;;;;;;;;;;;;;;;4978660;28;20435;-71
2023/07/18 02:51:42;;;;;;;;;;;;;;;;;;4971468;28;20354;-71
2023/07/18 02:54:08;;;;;;;;;;;;;;;;;;4975153;28;19932;-71
2023/07/18 02:56:34;;;;;;;;;;;;;;;;;;4980245;28;19973;-71
2023/07/18 02:59:01;;;;;;;;;;;;;;;;;;4983178;28;19940;-71
2023/07/18 03:01:27;;;;;;;;;;;;;;;;;;4966826;28;19925;-71
2023/07/18 03:03:54;;;;;;;;;;;;;;;;;;4983170;28;20024;-70
2023/07/18 03:06:20;;;;;;;;;;;;;;;;;;4982794;28;19929;-70
2023/07/18 03:08:46;;;;;;;;;;;;;;;;;;4984248;28;19926;-71
2023/07/18 03:11:11;;;;;;;;;;;;;;;;;;4979281;28;19934;-69
2023/07/18 03:13:37;;;;;;;;;;;;;;;;;;4982094;28;20003;-71
2023/07/18 03:16:04;;;;;;;;;;;;;;;;;;4982824;28;19933;-71
2023/07/18 03:18:30;;;;;;;;;;;;;;;;;;4981875;28;19926;-70
2023/07/18 03:20:56;;;;;;;;;;;;;;;;;;4981595;28;19925;-70
2023/07/18 03:23:22;;;;;;;;;;;;;;;;;;4979306;28;19984;-70
2023/07/18 03:25:48;;;;;;;;;;;;;;;;;;4983613;28;19996;-70
2023/07/18 03:28:14;;;;;;;;;;;;;;;;;;4974043;28;20387;-70
2023/07/18 03:30:40;;;;;;;;;;;;;;;;;;4979035;28;19952;-70
2023/07/18 03:33:06;;;;;;;;;;;;;;;;;;4983710;28;19941;-70
2023/07/18 03:35:32;;;;;;;;;;;;;;;;;;4983154;28;19933;-70
2023/07/18 03:37:58;;;;;;;;;;;;;;;;;;4962368;28;19926;-69
2023/07/18 03:40:24;;;;;;;;;;;;;;;;;;4976747;28;19997;-69
2023/07/18 03:42:50;;;;;;;;;;;;;;;;;;4976222;28;19933;-69
2023/07/18 03:45:16;;;;;;;;;;;;;;;;;;4969920;28;19926;-69
2023/07/18 03:47:42;;;;;;;;;;;;;;;;;;4955326;28;20308;-68
2023/07/18 03:50:08;;;;;;;;;;;;;;;;;;4974519;28;19977;-69
2023/07/18 03:52:34;;;;;;;;;;;;;;;;;;4974006;28;19981;-71
2023/07/18 03:55:00;;;;;;;;;;;;;;;;;;4977910;28;20006;-69
2023/07/18 03:57:27;;;;;;;;;;;;;;;;;;4965915;28;19926;-70
2023/07/18 03:59:53;;;;;;;;;;;;;;;;;;4977930;28;20400;-71
2023/07/18 04:02:19;;;;;;;;;;;;;;;;;;4976639;28;19926;-72
2023/07/18 04:04:44;;;;;;;;;;;;;;;;;;4982356;28;19925;-70
2023/07/18 04:07:10;;;;;;;;;;;;;;;;;;4974112;28;19937;-70
2023/07/18 04:09:36;;;;;;;;;;;;;;;;;;4982887;28;20310;-70
2023/07/18 04:12:02;;;;;;;;;;;;;;;;;;4982909;28;20464;-69
2023/07/18 04:14:28;;;;;;;;;;;;;;;;;;4984005;28;19957;-70
2023/07/18 04:16:54;;;;;;;;;;;;;;;;;;4981203;28;20008;-70
2023/07/18 04:19:20;;;;;;;;;;;;;;;;;;4983713;28;20590;-71
2023/07/18 04:21:46;;;;;;;;;;;;;;;;;;4984036;28;19934;-71
2023/07/18 04:24:12;;;;;;;;;;;;;;;;;;4982969;28;20120;-70
2023/07/18 04:26:38;;;;;;;;;;;;;;;;;;4976032;28;19934;-70
2023/07/18 04:29:04;;;;;;;;;;;;;;;;;;4971970;28;19961;-72
2023/07/18 04:31:30;;;;;;;;;;;;;;;;;;4983928;28;19980;-72
2023/07/18 04:33:56;;;;;;;;;;;;;;;;;;4978706;28;19980;-72
2023/07/18 04:36:21;;;;;;;;;;;;;;;;;;4984026;28;20603;-72
2023/07/18 04:38:47;;;;;;;;;;;;;;;;;;4986419;28;20603;-71
2023/07/18 04:41:13;;;;;;;;;;;;;;;;;;4980988;28;20603;-70
2023/07/18 04:43:39;;;;;;;;;;;;;;;;;;4978434;28;19932;-69
2023/07/18 04:46:05;;;;;;;;;;;;;;;;;;4982971;28;20460;-70
2023/07/18 04:48:31;;;;;;;;;;;;;;;;;;4981680;28;19936;-70
2023/07/18 04:50:57;;;;;;;;;;;;;;;;;;4980391;28;20660;-72
2023/07/18 04:53:23;;;;;;;;;;;;;;;;;;4985977;28;20288;-70
2023/07/18 04:55:49;;;;;;;;;;;;;;;;;;4975420;28;19977;-70
2023/07/18 04:58:15;;;;;;;;;;;;;;;;;;4977627;28;20319;-71
2023/07/18 05:00:41;;;;;;;;;;;;;;;;;;4969750;28;20309;-69
2023/07/18 05:03:07;;;;;;;;;;;;;;;;;;4980622;28;19925;-70
2023/07/18 05:05:33;;;;;;;;;;;;;;;;;;4986548;28;20371;-71
2023/07/18 05:07:59;;;;;;;;;;;;;;;;;;4985359;28;20383;-70
2023/07/18 05:10:25;;;;;;;;;;;;;;;;;;4966770;28;19949;-70
2023/07/18 05:12:51;;;;;;;;;;;;;;;;;;4978693;28;20376;-69
2023/07/18 05:15:17;;;;;;;;;;;;;;;;;;4983315;28;19940;-69
2023/07/18 05:17:43;;;;;;;;;;;;;;;;;;4971319;28;19949;-71
2023/07/18 05:20:10;;;;;;;;;;;;;;;;;;4972877;28;19941;-71
2023/07/18 05:22:36;;;;;;;;;;;;;;;;;;4960388;28;19922;-71
2023/07/18 05:25:04;;;;;;;;;;;;;;;;;;4969930;28;19992;-66
2023/07/18 05:27:30;;;;;;;;;;;;;;;;;;4984276;28;19953;-71
2023/07/18 05:29:56;;;;;;;;;;;;;;;;;;4967750;28;19983;-72
2023/07/18 05:32:22;;;;;;;;;;;;;;;;;;4986979;28;20356;-65
2023/07/18 05:34:49;;;;;;;;;;;;;;;;;;4984583;28;19932;-66
2023/07/18 05:37:15;;;;;;;;;;;;;;;;;;4984607;28;19926;-66
2023/07/18 05:39:41;;;;;;;;;;;;;;;;;;4985171;28;19937;-64
2023/07/18 05:42:07;;;;;;;;;;;;;;;;;;4973862;28;19953;-65
2023/07/18 05:44:33;;;;;;;;;;;;;;;;;;4980054;28;20013;-65
2023/07/18 05:46:59;;;;;;;;;;;;;;;;;;4976256;28;20113;-65
2023/07/18 05:49:25;;;;;;;;;;;;;;;;;;4979313;28;19930;-66
2023/07/18 05:51:52;;;;;;;;;;;;;;;;;;4979318;28;20342;-66
2023/07/18 05:54:17;;;;;;;;;;;;;;;;;;4983038;28;20411;-66
2023/07/18 05:56:43;;;;;;;;;;;;;;;;;;4985349;28;19988;-67
2023/07/18 05:59:09;;;;;;;;;;;;;;;;;;4980251;28;20024;-67
2023/07/18 06:01:35;;;;;;;;;;;;;;;;;;4983830;28;20008;-67
2023/07/18 06:04:01;;;;;;;;;;;;;;;;;;4984316;28;19930;-66
2023/07/18 06:06:27;;;;;;;;;;;;;;;;;;4968659;28;19933;-67
2023/07/18 06:08:54;;;;;;;;;;;;;;;;;;4966750;28;19926;-66
2023/07/18 06:11:21;;;;;;;;;;;;;;;;;;4979509;28;19933;-64
2023/07/18 06:13:48;;;;;;;;;;;;;;;;;;4974287;28;19926;-66
2023/07/18 06:16:14;;;;;;;;;;;;;;;;;;4984366;28;20008;-66
2023/07/18 06:18:43;;;;;;;;;;;;;;;;;;4983239;28;20434;-67
2023/07/18 06:21:09;;;;;;;;;;;;;;;;;;4980226;28;20447;-67
2023/07/18 06:23:35;;;;;;;;;;;;;;;;;;4979473;28;19929;-67
2023/07/18 06:26:01;;;;;;;;;;;;;;;;;;4983826;28;19926;-66
2023/07/18 06:28:27;;;;;;;;;;;;;;;;;;4981326;28;20433;-66
2023/07/18 06:30:53;;;;;;;;;;;;;;;;;;4985045;28;19969;-66
2023/07/18 06:33:20;;;;;;;;;;;;;;;;;;4984509;28;19934;-67
2023/07/18 06:35:46;;;;;;;;;;;;;;;;;;4982906;28;20478;-67
2023/07/18 06:38:13;;;;;;;;;;;;;;;;;;4982656;28;19930;-67
2023/07/18 06:40:39;;;;;;;;;;;;;;;;;;4984047;28;20418;-66
2023/07/18 06:43:05;;;;;;;;;;;;;;;;;;4978888;28;19933;-67
2023/07/18 06:45:32;;;;;;;;;;;;;;;;;;4977069;28;19945;-66
2023/07/18 06:47:58;;;;;;;;;;;;;;;;;;4977582;28;19925;-66
2023/07/18 06:50:24;;;;;;;;;;;;;;;;;;4979391;28;20033;-67
2023/07/18 06:52:51;;;;;;;;;;;;;;;;;;4975602;28;19930;-66
2023/07/18 06:55:17;;;;;;;;;;;;;;;;;;4970308;28;19940;-66
2023/07/18 06:57:43;;;;;;;;;;;;;;;;;;4982029;28;19926;-66
2023/07/18 07:00:11;;;;;;;;;;;;;;;;;;4967523;28;19930;-66
2023/07/18 07:02:37;;;;;;;;;;;;;;;;;;4969584;28;19929;-67
2023/07/18 07:05:04;;;;;;;;;;;;;;;;;;4983530;28;19932;-66
2023/07/18 07:07:30;;;;;;;;;;;;;;;;;;4983420;28;19926;-66
2023/07/18 07:09:56;;;;;;;;;;;;;;;;;;4981794;28;19930;-67
2023/07/18 07:12:22;;;;;;;;;;;;;;;;;;4980830;28;20338;-65
2023/07/18 07:14:48;;;;;;;;;;;;;;;;;;4980484;28;20423;-66
2023/07/18 07:17:13;;;;;;;;;;;;;;;;;;4979054;28;19922;-66
2023/07/18 07:19:39;;;;;;;;;;;;;;;;;;4977902;28;19977;-66
2023/07/18 07:22:05;;;;;;;;;;;;;;;;;;4977229;28;20032;-67
2023/07/18 07:24:31;;;;;;;;;;;;;;;;;;4970494;28;19984;-66
2023/07/18 07:26:57;;;;;;;;;;;;;;;;;;4972731;28;20008;-66
2023/07/18 07:29:23;;;;;;;;;;;;;;;;;;4974730;28;20375;-66
2023/07/18 07:31:49;;;;;;;;;;;;;;;;;;4983606;28;19938;-67
2023/07/18 07:34:15;;;;;;;;;;;;;;;;;;4983895;28;19933;-66
2023/07/18 07:36:41;;;;;;;;;;;;;;;;;;4979003;28;19964;-67
2023/07/18 07:39:07;;;;;;;;;;;;;;;;;;4981069;28;20467;-67
2023/07/18 07:41:33;;;;;;;;;;;;;;;;;;4980673;28;19926;-67
2023/07/18 07:43:59;;;;;;;;;;;;;;;;;;4977346;28;19930;-67
2023/07/18 07:46:25;;;;;;;;;;;;;;;;;;4974641;28;20442;-67
2023/07/18 07:48:51;;;;;;;;;;;;;;;;;;4973766;28;19937;-66
2023/07/18 07:51:17;;;;;;;;;;;;;;;;;;4976307;28;19929;-66
2023/07/18 07:53:43;;;;;;;;;;;;;;;;;;4983997;28;20458;-66
2023/07/18 07:56:09;;;;;;;;;;;;;;;;;;4970844;28;19934;-66
2023/07/18 07:58:36;;;;;;;;;;;;;;;;;;4967308;28;19926;-67
2023/07/18 08:01:02;;;;;;;;;;;;;;;;;;4967570;28;20399;-66
2023/07/18 08:03:28;;;;;;;;;;;;;;;;;;4972594;28;19969;-66
2023/07/18 08:05:54;;;;;;;;;;;;;;;;;;4966064;28;19945;-66
2023/07/18 08:08:20;;;;;;;;;;;;;;;;;;4982536;28;20596;-66
2023/07/18 08:10:46;;;;;;;;;;;;;;;;;;4965610;28;19929;-66
2023/07/18 08:13:16;;;;;;;;;;;;;;;;;;4982983;28;19929;-66
2023/07/18 08:15:42;;;;;;;;;;;;;;;;;;4982384;28;19941;-66
2023/07/18 08:18:08;;;;;;;;;;;;;;;;;;4982506;28;20544;-67
2023/07/18 08:20:35;;;;;;;;;;;;;;;;;;4987393;28;19969;-66
2023/07/18 08:23:01;;;;;;;;;;;;;;;;;;4975109;28;19930;-65
2023/07/18 08:25:27;;;;;;;;;;;;;;;;;;4986977;28;19926;-66
2023/07/18 08:27:53;;;;;;;;;;;;;;;;;;4971371;28;20021;-66
2023/07/18 08:30:19;;;;;;;;;;;;;;;;;;4975200;28;20503;-67
2023/07/18 08:32:45;;;;;;;;;;;;;;;;;;4986814;28;19926;-66
2023/07/18 08:35:11;;;;;;;;;;;;;;;;;;4985875;28;20399;-65
2023/07/18 08:37:39;;;;;;;;;;;;;;;;;;4984888;28;19926;-66
2023/07/18 08:40:05;;;;;;;;;;;;;;;;;;4983100;28;20640;-68
2023/07/18 08:42:32;;;;;;;;;;;;;;;;;;4982044;28;19944;-67
2023/07/18 08:44:57;;;;;;;;;;;;;;;;;;4983175;28;19930;-66
2023/07/18 08:47:23;;;;;;;;;;;;;;;;;;4961789;28;19941;-66
2023/07/18 08:49:49;;;;;;;;;;;;;;;;;;4980098;28;20597;-68
2023/07/18 08:52:15;;;;;;;;;;;;;;;;;;4978961;28;19932;-69
2023/07/18 08:54:41;;;;;;;;;;;;;;;;;;4982932;28;19922;-67
2023/07/18 08:57:07;;;;;;;;;;;;;;;;;;4980127;28;20255;-66
2023/07/18 08:59:33;;;;;;;;;;;;;;;;;;4975878;28;20016;-67
2023/07/18 09:01:59;;;;;;;;;;;;;;;;;;4976314;28;19933;-67
2023/07/18 09:04:25;;;;;;;;;;;;;;;;;;4982583;28;19965;-66
2023/07/18 09:06:51;;;;;;;;;;;;;;;;;;4985796;28;19926;-66
2023/07/18 09:09:17;;;;;;;;;;;;;;;;;;4984876;28;19933;-66
2023/07/18 09:11:43;;;;;;;;;;;;;;;;;;4982088;28;19932;-66
2023/07/18 09:14:09;;;;;;;;;;;;;;;;;;4986688;28;19926;-67
2023/07/18 09:16:35;;;;;;;;;;;;;;;;;;4981559;28;19926;-67
2023/07/18 09:19:01;;;;;;;;;;;;;;;;;;4986444;28;19980;-66
2023/07/18 09:21:27;;;;;;;;;;;;;;;;;;4980764;28;19961;-66
2023/07/18 09:23:53;;;;;;;;;;;;;;;;;;4980029;28;19948;-67
2023/07/18 09:26:19;;;;;;;;;;;;;;;;;;4978272;28;20554;-66
2023/07/18 09:28:45;;;;;;;;;;;;;;;;;;4978167;28;20610;-66
2023/07/18 09:31:11;;;;;;;;;;;;;;;;;;4977574;28;19996;-67
2023/07/18 09:33:37;;;;;;;;;;;;;;;;;;4985745;28;20670;-67
2023/07/18 09:36:02;;;;;;;;;;;;;;;;;;4983988;28;19926;-66
2023/07/18 09:38:29;;;;;;;;;;;;;;;;;;4980275;28;19941;-66
2023/07/18 09:40:55;;;;;;;;;;;;;;;;;;4980758;28;19934;-66
2023/07/18 09:43:20;;;;;;;;;;;;;;;;;;4976876;28;20025;-66
2023/07/18 09:45:46;;;;;;;;;;;;;;;;;;4978783;28;19937;-66
2023/07/18 09:48:12;;;;;;;;;;;;;;;;;;4979140;28;19933;-66
2023/07/18 09:50:40;;;;;;;;;;;;;;;;;;4978030;28;19922;-66
2023/07/18 09:53:05;;;;;;;;;;;;;;;;;;4981634;28;19965;-66
2023/07/18 09:55:34;;;;;;;;;;;;;;;;;;4971861;28;20050;-67
2023/07/18 09:58:00;;;;;;;;;;;;;;;;;;4970811;28;19945;-67
2023/07/18 10:00:25;;;;;;;;;;;;;;;;;;4979482;28;19949;-66
2023/07/18 10:02:54;;;;;;;;;;;;;;;;;;4973284;28;20277;-66
2023/07/18 10:05:20;;;;;;;;;;;;;;;;;;4985126;28;20071;-66
2023/07/18 10:07:46;;;;;;;;;;;;;;;;;;4980871;28;20013;-66
2023/07/18 10:10:12;;;;;;;;;;;;;;;;;;4982737;28;19930;-66
2023/07/18 10:12:38;;;;;;;;;;;;;;;;;;4984696;28;19925;-67
2023/07/18 10:15:04;;;;;;;;;;;;;;;;;;4980376;28;19933;-67
2023/07/18 10:17:30;;;;;;;;;;;;;;;;;;4977601;28;20450;-67
2023/07/18 10:19:56;;;;;;;;;;;;;;;;;;4973587;28;20025;-66
2023/07/18 10:22:22;;;;;;;;;;;;;;;;;;4981652;28;19936;-66
2023/07/18 10:24:48;;;;;;;;;;;;;;;;;;4970949;28;19930;-66
2023/07/18 10:27:14;;;;;;;;;;;;;;;;;;4974641;28;20418;-67
2023/07/18 10:29:41;;;;;;;;;;;;;;;;;;4976212;28;19933;-66
2023/07/18 10:32:06;;;;;;;;;;;;;;;;;;4983873;28;19926;-67
2023/07/18 10:34:32;;;;;;;;;;;;;;;;;;4983846;28;19980;-67
2023/07/18 10:36:59;;;;;;;;;;;;;;;;;;4981609;28;20368;-67
2023/07/18 10:39:25;;;;;;;;;;;;;;;;;;4984304;28;19926;-67
2023/07/18 10:41:51;;;;;;;;;;;;;;;;;;4972364;28;19926;-66
2023/07/18 10:44:17;;;;;;;;;;;;;;;;;;4974054;28;20020;-67
2023/07/18 10:46:42;;;;;;;;;;;;;;;;;;4973613;28;20005;-67
2023/07/18 10:49:08;;;;;;;;;;;;;;;;;;4970229;28;19926;-67
2023/07/18 10:51:34;;;;;;;;;;;;;;;;;;4983052;28;19941;-68
2023/07/18 10:54:00;;;;;;;;;;;;;;;;;;4981051;28;19941;-67
2023/07/18 10:56:26;;;;;;;;;;;;;;;;;;4963779;28;19969;-67
2023/07/18 10:58:52;;;;;;;;;;;;;;;;;;4985029;28;19929;-67
2023/07/18 11:01:18;;;;;;;;;;;;;;;;;;4984838;28;19933;-66
2023/07/18 11:03:47;;;;;;;;;;;;;;;;;;4979068;28;20016;-67
2023/07/18 11:06:16;;;;;;;;;;;;;;;;;;4983198;28;19934;-66
2023/07/18 11:08:42;;;;;;;;;;;;;;;;;;4984601;28;19930;-67
2023/07/18 11:11:08;;;;;;;;;;;;;;;;;;4981132;28;19948;-68
2023/07/18 11:13:34;;;;;;;;;;;;;;;;;;4980739;28;19930;-68
2023/07/18 11:15:59;;;;;;;;;;;;;;;;;;4981393;28;20347;-67
2023/07/18 11:18:25;;;;;;;;;;;;;;;;;;4976132;28;19972;-68
2023/07/18 11:20:51;;;;;;;;;;;;;;;;;;4974575;28;20163;-66
2023/07/18 11:23:17;;;;;;;;;;;;;;;;;;4972466;28;19930;-68
2023/07/18 11:25:43;;;;;;;;;;;;;;;;;;4975050;28;19926;-68
2023/07/18 11:28:09;;;;;;;;;;;;;;;;;;4973724;28;19930;-69
2023/07/18 11:30:35;;;;;;;;;;;;;;;;;;4984003;28;19930;-69
2023/07/18 11:33:01;;;;;;;;;;;;;;;;;;4983843;28;19926;-67
2023/07/18 11:35:27;;;;;;;;;;;;;;;;;;4982262;28;20013;-67
2023/07/18 11:37:53;;;;;;;;;;;;;;;;;;4984019;28;19933;-67
2023/07/18 11:40:20;;;;;;;;;;;;;;;;;;4981356;28;20380;-68
2023/07/18 11:42:46;;;;;;;;;;;;;;;;;;4979679;28;19926;-69
2023/07/18 11:45:12;;;;;;;;;;;;;;;;;;4973324;28;20289;-70
2023/07/18 11:47:38;;;;;;;;;;;;;;;;;;4977754;28;19926;-69
2023/07/18 11:50:04;;;;;;;;;;;;;;;;;;4977622;28;20436;-69
2023/07/18 11:52:30;;;;;;;;;;;;;;;;;;4975466;28;19929;-69
2023/07/18 11:54:56;;;;;;;;;;;;;;;;;;4951802;28;19926;-69
2023/07/18 11:57:22;;;;;;;;;;;;;;;;;;4969631;28;19945;-67
2023/07/18 11:59:48;;;;;;;;;;;;;;;;;;4966751;28;19934;-67
2023/07/18 12:02:14;;;;;;;;;;;;;;;;;;4965773;28;19932;-68
2023/07/18 12:04:39;;;;;;;;;;;;;;;;;;4983584;28;19926;-68
2023/07/18 12:07:06;;;;;;;;;;;;;;;;;;4984246;28;20013;-68
2023/07/18 12:09:32;;;;;;;;;;;;;;;;;;4979027;28;19937;-68
2023/07/18 12:11:58;;;;;;;;;;;;;;;;;;4980290;28;19926;-68
2023/07/18 12:14:24;;;;;;;;;;;;;;;;;;4980227;28;20242;-67
2023/07/18 12:16:50;;;;;;;;;;;;;;;;;;4959106;28;19930;-68
2023/07/18 12:19:16;;;;;;;;;;;;;;;;;;4980584;28;19926;-69
2023/07/18 12:21:42;;;;;;;;;;;;;;;;;;4973340;28;19930;-68
2023/07/18 12:24:08;;;;;;;;;;;;;;;;;;4971779;28;19933;-68
2023/07/18 12:26:33;;;;;;;;;;;;;;;;;;4968705;28;19926;-68
2023/07/18 12:29:00;;;;;;;;;;;;;;;;;;4980470;28;19980;-68
2023/07/18 12:31:25;;;;;;;;;;;;;;;;;;4976357;28;19965;-68
2023/07/18 12:33:52;;;;;;;;;;;;;;;;;;4981529;28;20220;-67
2023/07/18 12:36:19;;;;;;;;;;;;;;;;;;4983597;28;19926;-69
2023/07/18 12:38:44;;;;;;;;;;;;;;;;;;4976914;28;19948;-68
2023/07/18 12:41:11;;;;;;;;;;;;;;;;;;4977786;28;20029;-69
2023/07/18 12:43:36;;;;;;;;;;;;;;;;;;4978665;28;20008;-69
2023/07/18 12:46:02;;;;;;;;;;;;;;;;;;4976530;28;19929;-68
2023/07/18 12:48:28;;;;;;;;;;;;;;;;;;4976919;28;19927;-68
2023/07/18 12:50:54;;;;;;;;;;;;;;;;;;4973827;28;19926;-67
2023/07/18 12:53:20;;;;;;;;;;;;;;;;;;4967772;28;19937;-67
2023/07/18 12:55:46;;;;;;;;;;;;;;;;;;4979835;28;19925;-67
2023/07/18 12:58:12;;;;;;;;;;;;;;;;;;4975476;28;19930;-69
2023/07/18 13:00:38;;;;;;;;;;;;;;;;;;4972739;28;20320;-68
2023/07/18 13:03:05;;;;;;;;;;;;;;;;;;4984720;28;19933;-68
2023/07/18 13:05:31;;;;;;;;;;;;;;;;;;4987644;28;19984;-68
2023/07/18 13:07:57;;;;;;;;;;;;;;;;;;4985343;28;20219;-68
2023/07/18 13:10:23;;;;;;;;;;;;;;;;;;4983928;28;19972;-68
2023/07/18 13:12:49;;;;;;;;;;;;;;;;;;4980372;28;20402;-69
2023/07/18 13:15:15;;;;;;;;;;;;;;;;;;4982245;28;20447;-69
2023/07/18 13:17:40;;;;;;;;;;;;;;;;;;4977489;28;20402;-68
2023/07/18 13:20:06;;;;;;;;;;;;;;;;;;4983563;28;20419;-69
2023/07/18 13:22:32;;;;;;;;;;;;;;;;;;4982815;28;19937;-68
2023/07/18 13:24:58;;;;;;;;;;;;;;;;;;4974189;28;19934;-67
2023/07/18 13:27:24;;;;;;;;;;;;;;;;;;4973976;28;20029;-67
2023/07/18 13:29:50;;;;;;;;;;;;;;;;;;4977531;28;20486;-68
2023/07/18 13:32:16;;;;;;;;;;;;;;;;;;4988870;28;19926;-68
2023/07/18 13:34:42;;;;;;;;;;;;;;;;;;4982168;28;19930;-67
2023/07/18 13:37:08;;;;;;;;;;;;;;;;;;4985534;28;19936;-67
2023/07/18 13:39:34;;;;;;;;;;;;;;;;;;4980860;28;19950;-67
2023/07/18 13:42:00;;;;;;;;;;;;;;;;;;4986099;28;20399;-68
2023/07/18 13:44:26;;;;;;;;;;;;;;;;;;4982970;28;19926;-69
2023/07/18 13:46:52;;;;;;;;;;;;;;;;;;4976722;28;20348;-66
2023/07/18 13:49:18;;;;;;;;;;;;;;;;;;4972535;28;19981;-67
2023/07/18 13:51:44;;;;;;;;;;;;;;;;;;4977928;28;19930;-67
2023/07/18 13:54:10;;;;;;;;;;;;;;;;;;4972757;28;19934;-67
2023/07/18 13:56:36;;;;;;;;;;;;;;;;;;4966861;28;19926;-68
2023/07/18 13:59:02;;;;;;;;;;;;;;;;;;4983546;28;19953;-68
2023/07/18 14:01:27;;;;;;;;;;;;;;;;;;4980499;28;19936;-68
2023/07/18 14:03:53;;;;;;;;;;;;;;;;;;4980273;28;19949;-67
2023/07/18 14:06:20;;;;;;;;;;;;;;;;;;4984055;28;20385;-67
2023/07/18 14:08:47;;;;;;;;;;;;;;;;;;4982456;28;19933;-68
2023/07/18 14:11:13;;;;;;;;;;;;;;;;;;4978809;28;20322;-67
2023/07/18 14:13:41;;;;;;;;;;;;;;;;;;4981610;28;20375;-69
2023/07/18 14:16:07;;;;;;;;;;;;;;;;;;4981968;28;20009;-68
2023/07/18 14:18:34;;;;;;;;;;;;;;;;;;4985101;28;20020;-68
2023/07/18 14:20:59;;;;;;;;;;;;;;;;;;4979790;28;20426;-68
2023/07/18 14:23:25;;;;;;;;;;;;;;;;;;4985730;28;19929;-68
2023/07/18 14:25:51;;;;;;;;;;;;;;;;;;4984635;28;19988;-68
2023/07/18 14:28:17;;;;;;;;;;;;;;;;;;4984951;28;19960;-68
2023/07/18 14:30:43;;;;;;;;;;;;;;;;;;4984897;28;19926;-70
2023/07/18 14:33:13;;;;;;;;;;;;;;;;;;4980019;28;21506;-69
2023/07/18 14:35:39;;;;;;;;;;;;;;;;;;4980889;28;19933;-69
2023/07/18 14:38:05;;;;;;;;;;;;;;;;;;4979861;28;19933;-68
2023/07/18 14:40:31;;;;;;;;;;;;;;;;;;4983049;28;19952;-69
2023/07/18 14:42:57;;;;;;;;;;;;;;;;;;4990702;28;19929;-68
2023/07/18 14:45:23;;;;;;;;;;;;;;;;;;4975492;28;19976;-68
2023/07/18 14:47:49;;;;;;;;;;;;;;;;;;4979894;28;19928;-68
2023/07/18 14:50:15;;;;;;;;;;;;;;;;;;4978695;28;19960;-67
2023/07/18 14:52:42;;;;;;;;;;;;;;;;;;4984873;28;19930;-69
2023/07/18 14:55:08;;;;;;;;;;;;;;;;;;4975172;28;19922;-70
2023/07/18 14:57:33;;;;;;;;;;;;;;;;;;4978630;28;20304;-70
2023/07/18 15:00:00;;;;;;;;;;;;;;;;;;4981195;28;20392;-72
2023/07/18 15:02:26;;;;;;;;;;;;;;;;;;4979882;28;19953;-69
2023/07/18 15:04:52;;;;;;;;;;;;;;;;;;4984268;28;19926;-71
2023/07/18 15:07:18;;;;;;;;;;;;;;;;;;4983380;28;19979;-70
2023/07/18 15:09:44;;;;;;;;;;;;;;;;;;4977483;28;20616;-71
2023/07/18 15:12:10;;;;;;;;;;;;;;;;;;4976328;28;19933;-68
2023/07/18 15:14:36;;;;;;;;;;;;;;;;;;4982084;28;19929;-69
2023/07/18 15:17:05;;;;;;;;;;;;;;;;;;4984392;28;19929;-69
2023/07/18 15:19:31;;;;;;;;;;;;;;;;;;4984824;28;19926;-70
2023/07/18 15:21:57;;;;;;;;;;;;;;;;;;4983136;28;20028;-70
2023/07/18 15:24:23;;;;;;;;;;;;;;;;;;4992031;28;20861;-67
2023/07/18 15:26:49;;;;;;;;;;;;;;;;;;4985555;28;19934;-70
2023/07/18 15:29:15;;;;;;;;;;;;;;;;;;4979486;28;19926;-69
2023/07/18 15:31:40;;;;;;;;;;;;;;;;;;4981764;28;19930;-69
2023/07/18 15:34:06;;;;;;;;;;;;;;;;;;4976597;28;19940;-69
2023/07/18 15:36:32;;;;;;;;;;;;;;;;;;4982420;28;20541;-68
2023/07/18 15:38:58;;;;;;;;;;;;;;;;;;4973344;28;20380;-70
2023/07/18 15:41:26;;;;;;;;;;;;;;;;;;4974378;28;20391;-72
2023/07/18 15:43:53;;;;;;;;;;;;;;;;;;4980472;28;20701;-72
2023/07/18 15:46:19;;;;;;;;;;;;;;;;;;4975693;28;19981;-72
2023/07/18 15:48:45;;;;;;;;;;;;;;;;;;4979387;28;19929;-70
2023/07/18 15:51:11;;;;;;;;;;;;;;;;;;4983631;28;19926;-71
2023/07/18 15:53:36;;;;;;;;;;;;;;;;;;4981833;28;19953;-73
2023/07/18 15:56:02;;;;;;;;;;;;;;;;;;4979202;28;19929;-70
2023/07/18 15:58:28;;;;;;;;;;;;;;;;;;4981366;28;20658;-71
2023/07/18 16:00:57;;;;;;;;;;;;;;;;;;4979096;28;19981;-71
2023/07/18 16:03:22;;;;;;;;;;;;;;;;;;4983494;28;20405;-72
2023/07/18 16:05:48;;;;;;;;;;;;;;;;;;4980168;28;19926;-71
2023/07/18 16:08:14;;;;;;;;;;;;;;;;;;4981878;28;19925;-71
2023/07/18 16:10:40;;;;;;;;;;;;;;;;;;4979293;28;19925;-71
2023/07/18 16:13:07;;;;;;;;;;;;;;;;;;4978982;28;20392;-71
2023/07/18 16:15:32;;;;;;;;;;;;;;;;;;4978689;28;19980;-71
2023/07/18 16:18:02;;;;;;;;;;;;;;;;;;4966874;28;19975;-72
2023/07/18 16:20:28;;;;;;;;;;;;;;;;;;4976013;28;19932;-72
2023/07/18 16:22:54;;;;;;;;;;;;;;;;;;4975945;28;20033;-72
2023/07/18 16:25:20;;;;;;;;;;;;;;;;;;4971564;28;19969;-72
2023/07/18 16:27:48;;;;;;;;;;;;;;;;;;4974918;28;19937;-72
2023/07/18 16:30:14;;;;;;;;;;;;;;;;;;4972011;28;20016;-72
2023/07/18 16:32:40;;;;;;;;;;;;;;;;;;4986771;28;20269;-72
2023/07/18 16:35:06;;;;;;;;;;;;;;;;;;4978577;28;19932;-71
2023/07/18 16:37:32;;;;;;;;;;;;;;;;;;4982424;28;19949;-73
2023/07/18 16:39:58;;;;;;;;;;;;;;;;;;4974955;28;20360;-72
2023/07/18 16:42:24;;;;;;;;;;;;;;;;;;4984053;28;20269;-72